Time;durP1;ratioP1;P1;durP2;ratioP2;P2;SDS_P1;SDS_P2;PMS_P1;PMS_P2;Temp;Humidity;BMP_temperature;BMP_pressure;BME280_temperature;BME280_humidity;BME280_pressure;Samples;Min_cycle;Max_cycle;Signal;HPM_P1;HPM_P2
2022/10/09 00:01:52;;;;;;;1.57;1.47;;;25.20;60.90;;;;;;4995549;28;20968;-89
2022/10/09 00:04:19;;;;;;;1.50;1.40;;;25.30;61.00;;;;;;4995392;28;20470;-93
2022/10/09 00:06:46;;;;;;;1.40;1.30;;;25.20;60.90;;;;;;4995027;28;20989;-89
2022/10/09 00:09:13;;;;;;;1.23;1.13;;;25.20;60.90;;;;;;4994963;28;20462;-94
2022/10/09 00:11:40;;;;;;;1.50;1.40;;;25.20;61.80;;;;;;4995152;28;20473;-88
2022/10/09 00:14:08;;;;;;;1.30;1.20;;;25.20;60.90;;;;;;4995142;28;20451;-89
2022/10/09 00:16:35;;;;;;;1.60;1.50;;;25.20;60.80;;;;;;4994842;28;20450;-89
2022/10/09 00:19:03;;;;;;;1.40;1.30;;;25.20;60.80;;;;;;4994678;28;20565;-89
2022/10/09 00:21:32;;;;;;;1.60;1.50;;;25.20;60.80;;;;;;4994895;28;20452;-89
2022/10/09 00:24:00;;;;;;;1.90;1.03;;;25.20;60.90;;;;;;4994904;28;20451;-91
2022/10/09 00:26:27;;;;;;;1.37;1.27;;;25.20;60.80;;;;;;4994720;28;20482;-90
2022/10/09 00:28:55;;;;;;;1.10;1.00;;;25.20;60.80;;;;;;4994892;28;20455;-89
2022/10/09 00:31:23;;;;;;;2.33;1.30;;;25.20;60.80;;;;;;4994895;28;20490;-89
2022/10/09 00:33:50;;;;;;;1.40;1.30;;;25.20;60.70;;;;;;4994653;28;21026;-88
2022/10/09 00:36:20;;;;;;;1.30;1.20;;;25.20;60.70;;;;;;4994587;28;20451;-90
2022/10/09 00:38:47;;;;;;;2.07;1.30;;;25.20;60.60;;;;;;4994480;28;20439;-88
2022/10/09 00:41:16;;;;;;;1.37;1.13;;;25.20;60.60;;;;;;4994213;28;20448;-88
2022/10/09 00:43:46;;;;;;;1.37;1.27;;;25.20;60.60;;;;;;4994689;28;20473;-92
2022/10/09 00:46:33;;;;;;;1.30;1.20;;;25.20;60.60;;;;;;4994553;28;20955;-92
2022/10/09 00:49:05;;;;;;;1.50;1.40;;;25.20;60.50;;;;;;4995276;28;20486;-92
2022/10/09 00:51:33;;;;;;;1.80;1.70;;;25.20;60.50;;;;;;4994743;28;20443;-88
2022/10/09 00:54:01;;;;;;;1.50;1.40;;;25.10;60.50;;;;;;4994234;28;20449;-92
2022/10/09 00:56:28;;;;;;;1.30;1.20;;;25.10;60.40;;;;;;4994255;28;20452;-88
2022/10/09 00:58:57;;;;;;;1.50;1.40;;;25.10;60.40;;;;;;4994177;28;20579;-90
2022/10/09 01:01:24;;;;;;;1.50;1.40;;;25.10;60.40;;;;;;4994274;28;20450;-90
2022/10/09 01:03:52;;;;;;;1.30;1.20;;;25.10;60.40;;;;;;4994474;28;20537;-93
2022/10/09 01:06:25;;;;;;;2.47;1.40;;;25.10;60.30;;;;;;4994108;28;20438;-90
2022/10/09 01:09:00;;;;;;;1.33;1.23;;;25.10;60.20;;;;;;4994276;28;20477;-90
2022/10/09 01:11:37;;;;;;;1.40;1.30;;;25.10;60.20;;;;;;4994350;28;20446;-90
2022/10/09 01:14:14;;;;;;;1.50;1.40;;;25.10;60.30;;;;;;4994334;28;20486;-90
2022/10/09 01:16:45;;;;;;;1.50;1.40;;;25.10;60.30;;;;;;4994298;28;20942;-90
2022/10/09 01:19:34;;;;;;;1.27;1.17;;;25.10;60.30;;;;;;4993784;28;21046;-90
2022/10/09 01:22:09;;;;;;;1.50;1.40;;;25.10;60.20;;;;;;4994168;28;20443;-95
2022/10/09 01:24:39;;;;;;;1.57;1.47;;;25.10;60.40;;;;;;4994168;28;20800;-90
2022/10/09 01:27:12;;;;;;;1.93;1.50;;;25.00;60.20;;;;;;4993918;28;21117;-90
2022/10/09 01:29:44;;;;;;;1.40;1.20;;;25.10;60.20;;;;;;4994177;28;20443;-90
2022/10/09 01:32:15;;;;;;;1.50;1.40;;;25.10;60.20;;;;;;4993877;28;20922;-90
2022/10/09 01:34:45;;;;;;;1.40;1.30;;;25.00;60.00;;;;;;4994293;28;20503;-90
2022/10/09 01:37:13;;;;;;;1.30;1.20;;;25.10;60.20;;;;;;4994141;28;20453;-90
2022/10/09 01:39:42;;;;;;;1.20;1.10;;;25.00;60.10;;;;;;4993973;28;20450;-90
2022/10/09 01:42:13;;;;;;;1.50;1.17;;;25.00;60.10;;;;;;4994052;28;20513;-94
2022/10/09 01:44:40;;;;;;;1.30;1.20;;;25.00;60.00;;;;;;4994135;28;20430;-91
2022/10/09 01:47:07;;;;;;;1.23;1.13;;;25.00;60.00;;;;;;4993979;28;20854;-90
2022/10/09 01:49:40;;;;;;;1.37;1.27;;;25.00;60.00;;;;;;4993750;28;20454;-89
2022/10/09 01:52:19;;;;;;;1.40;1.30;;;25.00;60.00;;;;;;4994024;28;20442;-92
2022/10/09 01:54:56;;;;;;;1.63;1.53;;;25.00;60.00;;;;;;4996216;28;20437;-91
2022/10/09 01:57:29;;;;;;;1.20;1.10;;;25.00;60.00;;;;;;4997454;28;20928;-89
2022/10/09 01:59:58;;;;;;;1.20;1.10;;;25.20;60.20;;;;;;4997594;28;20439;-90
2022/10/09 02:02:26;;;;;;;1.40;1.30;;;25.00;60.00;;;;;;4997712;28;20453;-90
2022/10/09 02:04:53;;;;;;;1.30;1.20;;;25.00;60.00;;;;;;4997610;28;20450;-91
2022/10/09 02:07:21;;;;;;;1.27;1.17;;;25.00;60.00;;;;;;4997635;28;20498;-90
2022/10/09 02:09:48;;;;;;;1.30;1.20;;;25.00;59.90;;;;;;4997305;28;20447;-89
2022/10/09 02:12:19;;;;;;;1.40;1.30;;;25.00;59.90;;;;;;4997379;28;20476;-94
2022/10/09 02:14:48;;;;;;;1.60;1.50;;;25.00;60.00;;;;;;4997497;28;20450;-91
2022/10/09 02:17:22;;;;;;;1.17;1.07;;;25.00;60.00;;;;;;4997002;28;20455;-90
2022/10/09 02:19:52;;;;;;;1.20;1.10;;;25.00;59.90;;;;;;4997061;28;20481;-89
2022/10/09 02:22:22;;;;;;;1.67;1.57;;;25.00;59.80;;;;;;4997158;28;20447;-90
2022/10/09 02:24:49;;;;;;;1.30;1.20;;;25.00;60.00;;;;;;4997021;28;20792;-90
2022/10/09 02:27:18;;;;;;;1.33;1.23;;;25.00;59.90;;;;;;4997153;28;20491;-89
2022/10/09 02:29:48;;;;;;;1.00;0.90;;;24.90;59.90;;;;;;4997132;28;20442;-89
2022/10/09 02:32:15;;;;;;;1.40;1.30;;;25.00;59.90;;;;;;4996780;28;20451;-90
2022/10/09 02:34:43;;;;;;;1.30;1.20;;;24.90;59.80;;;;;;4996748;28;20455;-89
2022/10/09 02:37:10;;;;;;;1.13;1.03;;;25.10;59.80;;;;;;4997238;28;20450;-91
2022/10/09 02:39:36;;;;;;;1.20;1.10;;;24.90;59.80;;;;;;4996854;28;20455;-90
2022/10/09 02:42:04;;;;;;;1.70;1.60;;;24.90;59.80;;;;;;4996869;28;20466;-94
2022/10/09 02:44:31;;;;;;;1.53;1.43;;;24.90;59.80;;;;;;4996635;28;20442;-90
2022/10/09 02:46:59;;;;;;;1.50;1.40;;;24.90;59.80;;;;;;4995501;28;20457;-90
2022/10/09 02:49:26;;;;;;;1.20;1.10;;;24.90;59.80;;;;;;4996845;28;20443;-89
2022/10/09 02:51:52;;;;;;;1.40;1.30;;;24.90;59.80;;;;;;4996390;28;20976;-89
2022/10/09 02:54:19;;;;;;;1.50;1.40;;;24.90;59.80;;;;;;4996569;28;20456;-90
2022/10/09 02:56:46;;;;;;;1.57;1.47;;;24.90;59.80;;;;;;4996476;28;20840;-89
2022/10/09 02:59:13;;;;;;;1.30;1.20;;;24.90;59.70;;;;;;4996667;28;20450;-90
2022/10/09 03:01:40;;;;;;;1.30;1.20;;;24.90;59.80;;;;;;4996259;28;20457;-89
2022/10/09 03:04:08;;;;;;;1.30;1.20;;;24.90;59.70;;;;;;4996321;28;20449;-90
2022/10/09 03:06:35;;;;;;;1.60;1.50;;;24.90;59.60;;;;;;4996063;28;20444;-89
2022/10/09 03:09:02;;;;;;;1.50;1.40;;;24.90;59.70;;;;;;4996411;28;20919;-89
2022/10/09 03:11:29;;;;;;;1.47;1.30;;;24.90;59.80;;;;;;4996278;28;20973;-90
2022/10/09 03:13:56;;;;;;;1.40;1.30;;;24.90;59.70;;;;;;4996120;28;20538;-93
2022/10/09 03:16:24;;;;;;;1.40;1.30;;;24.90;59.70;;;;;;4996072;28;20449;-89
2022/10/09 03:18:51;;;;;;;1.40;1.30;;;24.90;59.60;;;;;;4996107;28;20486;-90
2022/10/09 03:21:22;;;;;;;1.40;1.30;;;24.90;59.70;;;;;;4996803;28;20456;-89
2022/10/09 03:23:49;;;;;;;1.23;1.13;;;24.90;59.70;;;;;;4996259;28;20443;-89
2022/10/09 03:26:19;;;;;;;1.27;1.17;;;24.80;59.70;;;;;;4995880;28;20454;-89
2022/10/09 03:28:48;;;;;;;1.37;1.27;;;24.90;60.40;;;;;;4996090;28;20489;-89
2022/10/09 03:31:15;;;;;;;1.47;1.30;;;24.90;59.70;;;;;;4996200;28;20445;-89
2022/10/09 03:33:42;;;;;;;1.17;1.03;;;24.90;59.70;;;;;;4995766;28;20957;-90
2022/10/09 03:36:10;;;;;;;1.60;1.50;;;24.80;59.50;;;;;;4995705;28;20447;-90
2022/10/09 03:38:39;;;;;;;2.10;1.47;;;24.80;59.60;;;;;;4995760;28;20452;-91
2022/10/09 03:41:06;;;;;;;1.70;1.60;;;24.90;59.60;;;;;;4995636;28;20447;-90
2022/10/09 03:43:34;;;;;;;1.43;1.33;;;24.80;60.20;;;;;;4995513;28;20933;-89
2022/10/09 03:46:05;;;;;;;1.67;1.57;;;24.80;59.60;;;;;;4995628;28;20852;-90
2022/10/09 03:48:32;;;;;;;1.30;1.20;;;24.80;59.50;;;;;;4995600;28;20887;-90
2022/10/09 03:50:58;;;;;;;1.50;1.40;;;24.80;59.60;;;;;;4995648;28;20447;-92
2022/10/09 03:53:26;;;;;;;1.50;1.40;;;24.80;59.50;;;;;;4995690;28;20457;-89
2022/10/09 03:55:54;;;;;;;1.40;1.30;;;24.80;59.50;;;;;;4995621;28;20481;-90
2022/10/09 03:58:21;;;;;;;1.47;1.37;;;24.80;59.60;;;;;;4995283;28;20953;-94
2022/10/09 04:00:50;;;;;;;1.33;1.20;;;24.80;59.50;;;;;;4995427;28;20444;-93
2022/10/09 04:03:16;;;;;;;1.40;1.30;;;24.80;59.50;;;;;;4995425;28;20451;-89
2022/10/09 04:05:43;;;;;;;1.50;1.40;;;24.80;59.50;;;;;;4995270;28;20451;-90
2022/10/09 04:08:10;;;;;;;1.50;1.40;;;24.80;59.50;;;;;;4995189;28;20496;-90
2022/10/09 04:10:37;;;;;;;1.30;1.20;;;24.80;59.50;;;;;;4995072;28;20506;-89
2022/10/09 04:13:05;;;;;;;1.20;1.10;;;24.80;59.50;;;;;;4995228;28;20466;-89
2022/10/09 04:15:32;;;;;;;1.40;1.30;;;24.80;59.50;;;;;;4995777;28;20447;-94
2022/10/09 04:18:00;;;;;;;1.50;1.40;;;24.80;59.50;;;;;;4994211;28;20481;-89
2022/10/09 04:20:27;;;;;;;1.23;1.13;;;24.80;59.50;;;;;;4994768;28;20929;-91
2022/10/09 04:22:54;;;;;;;1.63;1.53;;;24.80;59.50;;;;;;4994873;28;20452;-89
2022/10/09 04:25:21;;;;;;;1.20;1.10;;;24.80;59.50;;;;;;4995410;28;20766;-89
2022/10/09 04:27:47;;;;;;;1.40;1.30;;;24.80;59.50;;;;;;4994845;28;20494;-91
2022/10/09 04:30:16;;;;;;;1.50;1.40;;;24.80;59.50;;;;;;4994696;28;20821;-90
2022/10/09 04:32:43;;;;;;;1.80;1.70;;;24.80;59.50;;;;;;4994699;28;20451;-90
2022/10/09 04:35:09;;;;;;;1.37;1.27;;;24.80;59.50;;;;;;4994771;28;20528;-89
2022/10/09 04:37:36;;;;;;;1.50;1.40;;;24.80;59.50;;;;;;4994590;28;20498;-95
2022/10/09 04:40:03;;;;;;;1.57;1.47;;;24.80;59.50;;;;;;4994605;28;20446;-90
2022/10/09 04:42:30;;;;;;;1.40;1.30;;;24.70;59.30;;;;;;4994678;28;20472;-90
2022/10/09 04:44:57;;;;;;;1.50;1.40;;;24.80;59.50;;;;;;4994546;28;20442;-92
2022/10/09 04:47:25;;;;;;;1.50;1.40;;;24.70;59.40;;;;;;4994871;28;20469;-89
2022/10/09 04:49:52;;;;;;;2.17;1.40;;;24.80;59.50;;;;;;4994393;28;20449;-89
2022/10/09 04:52:19;;;;;;;1.50;1.40;;;24.70;59.50;;;;;;4994342;28;20544;-94
2022/10/09 04:54:46;;;;;;;1.50;1.40;;;24.70;60.00;;;;;;4994278;28;20461;-89
2022/10/09 04:57:13;;;;;;;1.30;1.20;;;24.70;59.40;;;;;;4994556;28;20803;-90
2022/10/09 04:59:39;;;;;;;1.67;1.57;;;24.70;59.40;;;;;;4994217;28;20942;-89
2022/10/09 05:02:06;;;;;;;1.60;1.50;;;24.70;59.30;;;;;;4994451;28;20455;-89
2022/10/09 05:04:34;;;;;;;1.53;1.43;;;24.70;59.40;;;;;;4994499;28;20540;-90
2022/10/09 05:07:01;;;;;;;1.70;1.60;;;24.70;59.40;;;;;;4994102;28;20447;-89
2022/10/09 05:09:28;;;;;;;1.43;1.33;;;24.70;59.30;;;;;;4994163;28;21023;-91
2022/10/09 05:11:55;;;;;;;1.33;1.23;;;24.70;59.30;;;;;;4993974;28;20569;-90
2022/10/09 05:14:22;;;;;;;1.47;1.37;;;24.70;59.30;;;;;;4994358;28;20453;-95
2022/10/09 05:16:51;;;;;;;1.40;1.30;;;24.70;59.30;;;;;;4994224;28;20466;-89
2022/10/09 05:19:18;;;;;;;1.50;1.40;;;24.80;59.50;;;;;;4993964;28;20556;-92
2022/10/09 05:21:46;;;;;;;1.60;1.50;;;24.70;59.40;;;;;;4994305;28;20449;-93
2022/10/09 05:24:13;;;;;;;1.60;1.50;;;24.70;59.30;;;;;;4994429;28;20785;-90
2022/10/09 05:26:40;;;;;;;1.70;1.60;;;24.70;59.30;;;;;;4994186;28;20453;-90
2022/10/09 05:29:07;;;;;;;1.50;1.40;;;24.70;59.30;;;;;;4997134;28;20937;-95
2022/10/09 05:31:33;;;;;;;1.63;1.53;;;24.70;59.30;;;;;;4997930;28;20543;-93
2022/10/09 05:34:01;;;;;;;1.20;1.10;;;24.70;59.40;;;;;;4997929;28;20920;-90
2022/10/09 05:36:28;;;;;;;1.30;1.20;;;24.60;59.30;;;;;;4997884;28;20527;-90
2022/10/09 05:38:57;;;;;;;1.70;1.60;;;24.70;59.40;;;;;;4997905;28;21025;-89
2022/10/09 05:41:24;;;;;;;1.40;1.30;;;24.70;60.00;;;;;;4997972;28;20465;-90
2022/10/09 05:43:50;;;;;;;1.47;1.37;;;24.70;59.40;;;;;;4997824;28;20459;-90
2022/10/09 05:46:19;;;;;;;1.60;1.50;;;24.70;59.40;;;;;;4997816;28;20446;-90
2022/10/09 05:48:51;;;;;;;1.80;1.70;;;24.70;59.40;;;;;;4997855;28;20516;-89
2022/10/09 05:51:19;;;;;;;1.87;1.60;;;24.60;59.30;;;;;;4997826;28;20449;-94
2022/10/09 05:53:47;;;;;;;1.53;1.43;;;24.70;59.40;;;;;;4997905;28;20544;-91
2022/10/09 05:56:18;;;;;;;1.50;1.40;;;24.60;59.30;;;;;;4997811;28;20443;-94
2022/10/09 05:58:49;;;;;;;1.50;1.40;;;24.70;59.40;;;;;;4997617;28;20427;-89
2022/10/09 06:01:16;;;;;;;1.77;1.67;;;24.60;59.30;;;;;;4997724;28;20941;-94
2022/10/09 06:03:47;;;;;;;1.70;1.60;;;24.60;59.30;;;;;;4997940;28;20456;-89
2022/10/09 06:06:14;;;;;;;1.30;1.20;;;24.60;59.30;;;;;;4997695;28;20442;-90
2022/10/09 06:08:41;;;;;;;1.50;1.40;;;24.70;59.40;;;;;;4997479;28;20496;-89
2022/10/09 06:11:13;;;;;;;1.43;1.33;;;24.60;59.30;;;;;;4997291;28;20474;-89
2022/10/09 06:13:42;;;;;;;1.40;1.30;;;24.60;59.20;;;;;;4997635;28;20463;-89
2022/10/09 06:16:10;;;;;;;1.43;1.33;;;24.70;59.30;;;;;;4997581;28;20495;-90
2022/10/09 06:18:37;;;;;;;1.50;1.40;;;24.60;59.30;;;;;;4997658;28;20540;-89
2022/10/09 06:21:04;;;;;;;1.50;1.40;;;24.60;59.20;;;;;;5004296;28;20794;-89
2022/10/09 06:23:31;;;;;;;1.73;1.63;;;24.60;59.40;;;;;;5016664;28;20930;-85
2022/10/09 06:26:00;;;;;;;1.67;1.57;;;24.60;59.30;;;;;;5016305;28;20449;-87
2022/10/09 06:28:28;;;;;;;1.77;1.67;;;24.60;59.50;;;;;;5016628;28;20483;-85
2022/10/09 06:31:02;;;;;;;1.90;1.73;;;24.60;59.40;;;;;;5018296;28;20445;-91
2022/10/09 06:33:30;;;;;;;1.50;1.40;;;24.60;59.30;;;;;;5017275;28;20452;-92
2022/10/09 06:36:00;;;;;;;2.27;1.80;;;24.50;59.40;;;;;;5016548;28;20500;-92
2022/10/09 06:38:27;;;;;;;3.13;1.80;;;24.50;59.00;;;;;;5016464;28;20440;-92
2022/10/09 06:40:53;;;;;;;2.57;1.97;;;24.40;59.30;;;;;;5015777;28;21006;-93
2022/10/09 06:43:20;;;;;;;1.60;1.50;;;24.40;59.40;;;;;;5016484;28;20530;-94
2022/10/09 06:45:47;;;;;;;2.93;2.20;;;24.40;59.70;;;;;;5017245;28;20467;-92
2022/10/09 06:48:15;;;;;;;1.90;1.80;;;24.40;59.60;;;;;;5012544;28;20446;-88
2022/10/09 06:50:42;;;;;;;1.87;1.43;;;24.40;59.40;;;;;;5011479;28;20972;-87
2022/10/09 06:53:09;;;;;;;2.70;2.23;;;24.50;59.50;;;;;;4996098;28;20447;-87
2022/10/09 06:55:35;;;;;;;2.93;2.33;;;24.40;58.70;;;;;;4996228;28;20449;-87
2022/10/09 06:58:02;;;;;;;2.50;2.10;;;24.40;59.20;;;;;;4996548;28;20438;-85
2022/10/09 07:00:29;;;;;;;2.30;2.10;;;24.50;59.50;;;;;;4995960;28;20537;-87
2022/10/09 07:02:56;;;;;;;3.63;2.73;;;24.50;59.40;;;;;;4996122;28;20442;-86
2022/10/09 07:05:24;;;;;;;2.73;2.13;;;24.50;59.40;;;;;;5003332;28;20464;-86
2022/10/09 07:07:51;;;;;;;2.27;2.07;;;24.50;60.00;;;;;;5014969;28;20444;-86
2022/10/09 07:10:18;;;;;;;2.90;1.97;;;24.50;59.50;;;;;;5014618;28;21010;-86
2022/10/09 07:12:44;;;;;;;2.90;2.57;;;24.50;59.50;;;;;;5014874;28;20487;-86
2022/10/09 07:15:11;;;;;;;2.93;2.63;;;24.50;59.60;;;;;;5014998;28;20455;-86
2022/10/09 07:17:38;;;;;;;2.20;2.00;;;24.50;59.70;;;;;;5014836;28;20449;-86
2022/10/09 07:20:05;;;;;;;3.00;2.20;;;24.50;59.70;;;;;;5015419;28;20448;-93
2022/10/09 07:22:34;;;;;;;2.63;2.40;;;24.50;59.70;;;;;;5015979;28;20444;-90
